sensor_id;sensor_type;location;lat;lon;timestamp;P1;durP1;ratioP1;P2;durP2;ratioP2
69034;SDS011;56091;55.756;37.412;2022-11-12T00:02:54;13.97;;;4.97;;
69034;SDS011;56091;55.756;37.412;2022-11-12T00:08:15;13.82;;;5.80;;
69034;SDS011;56091;55.756;37.412;2022-11-12T00:13:34;10.83;;;4.80;;
69034;SDS011;56091;55.756;37.412;2022-11-12T00:18:54;12.10;;;4.60;;
69034;SDS011;56091;55.756;37.412;2022-11-12T00:24:13;14.47;;;5.07;;
69034;SDS011;56091;55.756;37.412;2022-11-12T00:29:35;14.43;;;5.22;;
69034;SDS011;56091;55.756;37.412;2022-11-12T00:34:54;13.83;;;5.57;;
69034;SDS011;56091;55.756;37.412;2022-11-12T00:40:14;13.05;;;5.30;;
69034;SDS011;56091;55.756;37.412;2022-11-12T00:45:33;19.07;;;7.03;;
69034;SDS011;56091;55.756;37.412;2022-11-12T00:50:58;19.38;;;6.80;;
69034;SDS011;56091;55.756;37.412;2022-11-12T00:56:18;17.27;;;6.20;;
69034;SDS011;56091;55.756;37.412;2022-11-12T01:01:38;15.43;;;6.35;;
69034;SDS011;56091;55.756;37.412;2022-11-12T01:06:58;16.90;;;6.27;;
69034;SDS011;56091;55.756;37.412;2022-11-12T01:12:17;19.48;;;6.45;;
69034;SDS011;56091;55.756;37.412;2022-11-12T01:17:36;13.60;;;6.00;;
69034;SDS011;56091;55.756;37.412;2022-11-12T01:22:58;14.65;;;6.28;;
69034;SDS011;56091;55.756;37.412;2022-11-12T01:28:17;15.40;;;6.23;;
69034;SDS011;56091;55.756;37.412;2022-11-12T01:33:37;15.32;;;6.22;;
69034;SDS011;56091;55.756;37.412;2022-11-12T01:38:57;12.83;;;5.83;;
69034;SDS011;56091;55.756;37.412;2022-11-12T01:44:18;16.45;;;6.68;;
69034;SDS011;56091;55.756;37.412;2022-11-12T01:49:40;17.93;;;6.03;;
69034;SDS011;56091;55.756;37.412;2022-11-12T01:55:04;16.00;;;7.55;;
69034;SDS011;56091;55.756;37.412;2022-11-12T02:00:27;16.23;;;6.60;;
69034;SDS011;56091;55.756;37.412;2022-11-12T02:05:48;15.35;;;6.32;;
69034;SDS011;56091;55.756;37.412;2022-11-12T02:11:12;18.50;;;7.13;;
69034;SDS011;56091;55.756;37.412;2022-11-12T02:16:35;17.00;;;6.40;;
69034;SDS011;56091;55.756;37.412;2022-11-12T02:21:56;17.57;;;6.03;;
69034;SDS011;56091;55.756;37.412;2022-11-12T02:27:15;15.65;;;6.53;;
69034;SDS011;56091;55.756;37.412;2022-11-12T02:32:35;13.90;;;5.87;;
69034;SDS011;56091;55.756;37.412;2022-11-12T02:37:54;16.63;;;5.88;;
69034;SDS011;56091;55.756;37.412;2022-11-12T02:43:13;14.67;;;5.63;;
69034;SDS011;56091;55.756;37.412;2022-11-12T02:48:33;11.50;;;5.00;;
69034;SDS011;56091;55.756;37.412;2022-11-12T02:53:52;12.27;;;5.30;;
69034;SDS011;56091;55.756;37.412;2022-11-12T02:59:12;12.65;;;4.95;;
69034;SDS011;56091;55.756;37.412;2022-11-12T03:04:31;11.30;;;4.70;;
69034;SDS011;56091;55.756;37.412;2022-11-12T03:09:50;13.10;;;5.50;;
69034;SDS011;56091;55.756;37.412;2022-11-12T03:15:13;11.50;;;4.77;;
69034;SDS011;56091;55.756;37.412;2022-11-12T03:20:32;12.93;;;4.75;;
69034;SDS011;56091;55.756;37.412;2022-11-12T03:25:52;14.83;;;5.20;;
69034;SDS011;56091;55.756;37.412;2022-11-12T03:31:12;14.60;;;5.07;;
69034;SDS011;56091;55.756;37.412;2022-11-12T03:36:31;12.13;;;5.00;;
69034;SDS011;56091;55.756;37.412;2022-11-12T03:41:50;10.93;;;4.82;;
69034;SDS011;56091;55.756;37.412;2022-11-12T03:47:10;15.23;;;5.50;;
69034;SDS011;56091;55.756;37.412;2022-11-12T03:52:29;11.25;;;4.80;;
69034;SDS011;56091;55.756;37.412;2022-11-12T03:57:48;11.37;;;4.60;;
69034;SDS011;56091;55.756;37.412;2022-11-12T04:03:09;13.23;;;5.07;;
69034;SDS011;56091;55.756;37.412;2022-11-12T04:08:28;10.30;;;4.77;;
69034;SDS011;56091;55.756;37.412;2022-11-12T04:13:54;9.50;;;3.95;;
69034;SDS011;56091;55.756;37.412;2022-11-12T04:19:13;10.93;;;4.60;;
69034;SDS011;56091;55.756;37.412;2022-11-12T04:24:51;12.20;;;4.10;;
69034;SDS011;56091;55.756;37.412;2022-11-12T04:30:29;9.03;;;3.70;;
69034;SDS011;56091;55.756;37.412;2022-11-12T04:35:50;9.75;;;3.85;;
69034;SDS011;56091;55.756;37.412;2022-11-12T04:41:10;9.40;;;3.57;;
69034;SDS011;56091;55.756;37.412;2022-11-12T04:46:48;7.82;;;3.25;;
69034;SDS011;56091;55.756;37.412;2022-11-12T04:52:08;8.33;;;3.33;;
69034;SDS011;56091;55.756;37.412;2022-11-12T04:57:27;7.72;;;3.17;;
69034;SDS011;56091;55.756;37.412;2022-11-12T05:02:49;7.97;;;3.40;;
69034;SDS011;56091;55.756;37.412;2022-11-12T05:08:08;11.80;;;3.55;;
69034;SDS011;56091;55.756;37.412;2022-11-12T05:13:28;8.40;;;3.63;;
69034;SDS011;56091;55.756;37.412;2022-11-12T05:18:47;7.65;;;2.90;;
69034;SDS011;56091;55.756;37.412;2022-11-12T05:24:06;7.77;;;3.40;;
69034;SDS011;56091;55.756;37.412;2022-11-12T05:29:26;8.10;;;2.83;;
69034;SDS011;56091;55.756;37.412;2022-11-12T05:34:45;8.17;;;3.13;;
69034;SDS011;56091;55.756;37.412;2022-11-12T05:40:04;6.65;;;2.72;;
69034;SDS011;56091;55.756;37.412;2022-11-12T05:45:24;6.70;;;2.70;;
69034;SDS011;56091;55.756;37.412;2022-11-12T05:50:44;7.07;;;2.63;;
69034;SDS011;56091;55.756;37.412;2022-11-12T05:56:08;6.43;;;2.40;;
69034;SDS011;56091;55.756;37.412;2022-11-12T06:01:28;6.72;;;2.63;;
69034;SDS011;56091;55.756;37.412;2022-11-12T06:06:48;8.13;;;2.30;;
69034;SDS011;56091;55.756;37.412;2022-11-12T06:12:07;4.90;;;1.92;;
69034;SDS011;56091;55.756;37.412;2022-11-12T06:17:26;5.30;;;2.30;;
69034;SDS011;56091;55.756;37.412;2022-11-12T06:22:46;5.10;;;2.10;;
69034;SDS011;56091;55.756;37.412;2022-11-12T06:28:06;6.00;;;2.30;;
69034;SDS011;56091;55.756;37.412;2022-11-12T06:33:25;5.03;;;2.08;;
69034;SDS011;56091;55.756;37.412;2022-11-12T06:38:44;6.03;;;1.87;;
69034;SDS011;56091;55.756;37.412;2022-11-12T06:44:04;5.25;;;1.88;;
69034;SDS011;56091;55.756;37.412;2022-11-12T06:49:24;4.37;;;1.73;;
69034;SDS011;56091;55.756;37.412;2022-11-12T06:54:43;5.15;;;1.92;;
69034;SDS011;56091;55.756;37.412;2022-11-12T07:00:04;7.40;;;1.70;;
69034;SDS011;56091;55.756;37.412;2022-11-12T07:05:24;4.50;;;1.90;;
69034;SDS011;56091;55.756;37.412;2022-11-12T07:10:43;6.13;;;1.87;;
69034;SDS011;56091;55.756;37.412;2022-11-12T07:21:33;6.13;;;1.50;;
69034;SDS011;56091;55.756;37.412;2022-11-12T07:26:52;3.88;;;1.40;;
69034;SDS011;56091;55.756;37.412;2022-11-12T07:32:14;4.10;;;1.50;;
69034;SDS011;56091;55.756;37.412;2022-11-12T07:37:36;3.65;;;1.30;;
69034;SDS011;56091;55.756;37.412;2022-11-12T07:42:57;4.20;;;1.50;;
69034;SDS011;56091;55.756;37.412;2022-11-12T07:48:17;4.75;;;1.60;;
69034;SDS011;56091;55.756;37.412;2022-11-12T07:53:36;5.50;;;1.50;;
69034;SDS011;56091;55.756;37.412;2022-11-12T07:58:55;3.20;;;1.25;;
69034;SDS011;56091;55.756;37.412;2022-11-12T08:04:15;4.17;;;1.67;;
69034;SDS011;56091;55.756;37.412;2022-11-12T08:09:36;4.97;;;1.50;;
69034;SDS011;56091;55.756;37.412;2022-11-12T08:14:56;3.97;;;1.50;;
69034;SDS011;56091;55.756;37.412;2022-11-12T08:20:15;5.18;;;2.05;;
69034;SDS011;56091;55.756;37.412;2022-11-12T08:25:37;5.90;;;2.03;;
69034;SDS011;56091;55.756;37.412;2022-11-12T08:31:04;4.78;;;1.70;;
69034;SDS011;56091;55.756;37.412;2022-11-12T08:36:25;4.47;;;1.70;;
69034;SDS011;56091;55.756;37.412;2022-11-12T08:41:44;4.50;;;1.80;;
69034;SDS011;56091;55.756;37.412;2022-11-12T08:47:04;4.17;;;1.63;;
69034;SDS011;56091;55.756;37.412;2022-11-12T08:52:26;3.85;;;1.50;;
69034;SDS011;56091;55.756;37.412;2022-11-12T08:57:45;6.80;;;2.03;;
69034;SDS011;56091;55.756;37.412;2022-11-12T09:03:05;4.03;;;1.55;;
69034;SDS011;56091;55.756;37.412;2022-11-12T09:08:26;5.27;;;1.80;;
69034;SDS011;56091;55.756;37.412;2022-11-12T09:13:45;6.47;;;2.03;;
69034;SDS011;56091;55.756;37.412;2022-11-12T09:19:05;4.63;;;1.87;;
69034;SDS011;56091;55.756;37.412;2022-11-12T09:24:24;4.78;;;1.70;;
69034;SDS011;56091;55.756;37.412;2022-11-12T09:29:43;4.47;;;1.60;;
69034;SDS011;56091;55.756;37.412;2022-11-12T09:35:03;4.13;;;1.60;;
69034;SDS011;56091;55.756;37.412;2022-11-12T09:40:29;27.73;;;13.03;;
69034;SDS011;56091;55.756;37.412;2022-11-12T09:46:06;5.38;;;1.75;;
69034;SDS011;56091;55.756;37.412;2022-11-12T09:51:49;4.50;;;1.70;;
69034;SDS011;56091;55.756;37.412;2022-11-12T09:57:12;4.13;;;1.50;;
69034;SDS011;56091;55.756;37.412;2022-11-12T10:02:35;4.40;;;1.70;;
69034;SDS011;56091;55.756;37.412;2022-11-12T10:19:04;3.70;;;1.40;;
69034;SDS011;56091;55.756;37.412;2022-11-12T10:24:36;4.67;;;1.53;;
69034;SDS011;56091;55.756;37.412;2022-11-12T10:30:02;4.68;;;1.60;;
69034;SDS011;56091;55.756;37.412;2022-11-12T10:35:23;4.13;;;1.40;;
69034;SDS011;56091;55.756;37.412;2022-11-12T10:40:42;3.97;;;1.40;;
69034;SDS011;56091;55.756;37.412;2022-11-12T10:46:12;3.67;;;1.50;;
69034;SDS011;56091;55.756;37.412;2022-11-12T10:51:40;3.90;;;1.30;;
69034;SDS011;56091;55.756;37.412;2022-11-12T10:57:21;3.80;;;1.40;;
69034;SDS011;56091;55.756;37.412;2022-11-12T11:02:48;3.88;;;1.50;;
69034;SDS011;56091;55.756;37.412;2022-11-12T11:08:10;4.33;;;1.47;;
69034;SDS011;56091;55.756;37.412;2022-11-12T11:13:29;3.75;;;1.45;;
69034;SDS011;56091;55.756;37.412;2022-11-12T11:18:50;3.63;;;1.53;;
69034;SDS011;56091;55.756;37.412;2022-11-12T11:35:45;4.80;;;1.60;;
69034;SDS011;56091;55.756;37.412;2022-11-12T12:09:30;4.75;;;1.80;;
69034;SDS011;56091;55.756;37.412;2022-11-12T12:14:59;4.67;;;1.43;;
69034;SDS011;56091;55.756;37.412;2022-11-12T12:20:25;5.85;;;1.70;;
69034;SDS011;56091;55.756;37.412;2022-11-12T12:25:53;4.90;;;1.47;;
69034;SDS011;56091;55.756;37.412;2022-11-12T12:31:17;4.28;;;1.60;;
69034;SDS011;56091;55.756;37.412;2022-11-12T12:36:40;4.43;;;1.50;;
69034;SDS011;56091;55.756;37.412;2022-11-12T12:42:03;4.22;;;1.52;;
69034;SDS011;56091;55.756;37.412;2022-11-12T12:47:34;3.47;;;1.40;;
69034;SDS011;56091;55.756;37.412;2022-11-12T12:58:31;4.07;;;1.43;;
69034;SDS011;56091;55.756;37.412;2022-11-12T13:04:05;7.07;;;1.30;;
69034;SDS011;56091;55.756;37.412;2022-11-12T13:09:30;3.13;;;1.20;;
69034;SDS011;56091;55.756;37.412;2022-11-12T13:14:52;4.22;;;1.20;;
69034;SDS011;56091;55.756;37.412;2022-11-12T13:20:30;3.27;;;1.10;;
69034;SDS011;56091;55.756;37.412;2022-11-12T13:25:56;3.28;;;1.02;;
69034;SDS011;56091;55.756;37.412;2022-11-12T13:49:05;2.72;;;1.10;;
69034;SDS011;56091;55.756;37.412;2022-11-12T13:54:31;3.63;;;1.20;;
69034;SDS011;56091;55.756;37.412;2022-11-12T14:00:08;5.93;;;1.13;;
69034;SDS011;56091;55.756;37.412;2022-11-12T14:05:38;14.03;;;3.70;;
69034;SDS011;56091;55.756;37.412;2022-11-12T14:11:24;2.50;;;1.10;;
69034;SDS011;56091;55.756;37.412;2022-11-12T14:22:38;4.05;;;1.20;;
69034;SDS011;56091;55.756;37.412;2022-11-12T14:28:01;2.40;;;1.07;;
69034;SDS011;56091;55.756;37.412;2022-11-12T14:33:21;3.38;;;1.27;;
69034;SDS011;56091;55.756;37.412;2022-11-12T14:38:47;2.60;;;0.90;;
69034;SDS011;56091;55.756;37.412;2022-11-12T14:44:17;2.63;;;1.08;;
69034;SDS011;56091;55.756;37.412;2022-11-12T14:49:39;3.83;;;1.23;;
69034;SDS011;56091;55.756;37.412;2022-11-12T14:55:10;4.75;;;1.10;;
69034;SDS011;56091;55.756;37.412;2022-11-12T15:00:42;2.90;;;0.97;;
69034;SDS011;56091;55.756;37.412;2022-11-12T15:11:25;1.83;;;0.80;;
69034;SDS011;56091;55.756;37.412;2022-11-12T15:16:49;3.10;;;1.10;;
69034;SDS011;56091;55.756;37.412;2022-11-12T15:22:17;2.83;;;1.00;;
69034;SDS011;56091;55.756;37.412;2022-11-12T15:27:41;3.45;;;1.00;;
69034;SDS011;56091;55.756;37.412;2022-11-12T15:38:33;2.97;;;1.08;;
69034;SDS011;56091;55.756;37.412;2022-11-12T15:43:55;4.53;;;1.20;;
69034;SDS011;56091;55.756;37.412;2022-11-12T15:49:15;4.22;;;1.17;;
69034;SDS011;56091;55.756;37.412;2022-11-12T15:54:34;3.13;;;0.97;;
69034;SDS011;56091;55.756;37.412;2022-11-12T16:00:00;5.70;;;1.17;;
69034;SDS011;56091;55.756;37.412;2022-11-12T16:05:23;3.63;;;1.20;;
69034;SDS011;56091;55.756;37.412;2022-11-12T16:10:43;4.18;;;1.00;;
69034;SDS011;56091;55.756;37.412;2022-11-12T16:16:05;5.13;;;1.10;;
69034;SDS011;56091;55.756;37.412;2022-11-12T16:21:25;3.03;;;0.93;;
69034;SDS011;56091;55.756;37.412;2022-11-12T16:26:44;2.90;;;0.80;;
69034;SDS011;56091;55.756;37.412;2022-11-12T16:32:04;2.80;;;0.80;;
69034;SDS011;56091;55.756;37.412;2022-11-12T16:37:23;4.07;;;1.07;;
69034;SDS011;56091;55.756;37.412;2022-11-12T16:42:43;2.58;;;1.00;;
69034;SDS011;56091;55.756;37.412;2022-11-12T16:48:39;2.07;;;0.83;;
69034;SDS011;56091;55.756;37.412;2022-11-12T16:53:52;2.92;;;0.88;;
69034;SDS011;56091;55.756;37.412;2022-11-12T16:59:11;3.67;;;1.00;;
69034;SDS011;56091;55.756;37.412;2022-11-12T17:04:32;3.63;;;1.00;;
69034;SDS011;56091;55.756;37.412;2022-11-12T17:09:52;2.67;;;1.00;;
69034;SDS011;56091;55.756;37.412;2022-11-12T17:15:11;4.10;;;1.05;;
69034;SDS011;56091;55.756;37.412;2022-11-12T17:20:31;5.27;;;1.00;;
69034;SDS011;56091;55.756;37.412;2022-11-12T17:25:58;4.45;;;1.00;;
69034;SDS011;56091;55.756;37.412;2022-11-12T17:31:21;3.70;;;1.00;;
69034;SDS011;56091;55.756;37.412;2022-11-12T17:36:41;2.65;;;0.90;;
69034;SDS011;56091;55.756;37.412;2022-11-12T17:42:01;2.50;;;0.90;;
69034;SDS011;56091;55.756;37.412;2022-11-12T17:47:20;2.80;;;1.00;;
69034;SDS011;56091;55.756;37.412;2022-11-12T17:52:39;3.43;;;0.97;;
69034;SDS011;56091;55.756;37.412;2022-11-12T17:57:58;4.60;;;1.00;;
69034;SDS011;56091;55.756;37.412;2022-11-12T18:03:18;2.77;;;1.00;;
69034;SDS011;56091;55.756;37.412;2022-11-12T18:08:38;2.85;;;0.90;;
69034;SDS011;56091;55.756;37.412;2022-11-12T18:14:04;2.97;;;0.90;;
69034;SDS011;56091;55.756;37.412;2022-11-12T18:19:26;4.78;;;1.10;;
69034;SDS011;56091;55.756;37.412;2022-11-12T18:24:46;3.47;;;1.10;;
69034;SDS011;56091;55.756;37.412;2022-11-12T18:30:06;4.32;;;1.00;;
69034;SDS011;56091;55.756;37.412;2022-11-12T18:35:26;3.80;;;1.03;;
69034;SDS011;56091;55.756;37.412;2022-11-12T18:40:48;3.25;;;0.90;;
69034;SDS011;56091;55.756;37.412;2022-11-12T18:46:08;4.10;;;1.00;;
69034;SDS011;56091;55.756;37.412;2022-11-12T18:51:31;3.08;;;1.00;;
69034;SDS011;56091;55.756;37.412;2022-11-12T18:56:50;3.60;;;1.13;;
69034;SDS011;56091;55.756;37.412;2022-11-12T19:02:10;4.68;;;1.10;;
69034;SDS011;56091;55.756;37.412;2022-11-12T19:07:29;3.80;;;1.20;;
69034;SDS011;56091;55.756;37.412;2022-11-12T19:12:48;4.07;;;1.00;;
69034;SDS011;56091;55.756;37.412;2022-11-12T19:18:08;1.70;;;0.90;;
69034;SDS011;56091;55.756;37.412;2022-11-12T19:23:27;6.10;;;1.30;;
69034;SDS011;56091;55.756;37.412;2022-11-12T19:28:46;4.50;;;1.17;;
69034;SDS011;56091;55.756;37.412;2022-11-12T19:34:06;4.20;;;1.10;;
69034;SDS011;56091;55.756;37.412;2022-11-12T19:39:25;4.63;;;1.10;;
69034;SDS011;56091;55.756;37.412;2022-11-12T19:44:44;3.45;;;1.10;;
69034;SDS011;56091;55.756;37.412;2022-11-12T19:50:04;4.23;;;1.20;;
69034;SDS011;56091;55.756;37.412;2022-11-12T19:55:27;5.70;;;1.30;;
69034;SDS011;56091;55.756;37.412;2022-11-12T20:00:47;2.53;;;0.90;;
69034;SDS011;56091;55.756;37.412;2022-11-12T20:06:07;2.75;;;1.10;;
69034;SDS011;56091;55.756;37.412;2022-11-12T20:11:29;4.07;;;1.07;;
69034;SDS011;56091;55.756;37.412;2022-11-12T20:16:49;3.35;;;0.98;;
69034;SDS011;56091;55.756;37.412;2022-11-12T20:22:08;2.23;;;0.90;;
69034;SDS011;56091;55.756;37.412;2022-11-12T20:27:28;2.70;;;0.98;;
69034;SDS011;56091;55.756;37.412;2022-11-12T20:32:47;5.83;;;1.47;;
69034;SDS011;56091;55.756;37.412;2022-11-12T20:38:07;3.25;;;1.10;;
69034;SDS011;56091;55.756;37.412;2022-11-12T20:43:26;6.43;;;1.00;;
69034;SDS011;56091;55.756;37.412;2022-11-12T20:48:46;4.13;;;0.90;;
69034;SDS011;56091;55.756;37.412;2022-11-12T20:54:07;4.90;;;1.00;;
69034;SDS011;56091;55.756;37.412;2022-11-12T20:59:27;3.92;;;1.00;;
69034;SDS011;56091;55.756;37.412;2022-11-12T21:04:47;4.23;;;1.17;;
69034;SDS011;56091;55.756;37.412;2022-11-12T21:10:06;5.28;;;1.20;;
69034;SDS011;56091;55.756;37.412;2022-11-12T21:15:26;5.30;;;1.20;;
69034;SDS011;56091;55.756;37.412;2022-11-12T21:20:46;6.32;;;1.25;;
69034;SDS011;56091;55.756;37.412;2022-11-12T21:26:07;7.77;;;1.60;;
69034;SDS011;56091;55.756;37.412;2022-11-12T21:31:30;3.72;;;1.30;;
69034;SDS011;56091;55.756;37.412;2022-11-12T21:36:50;5.00;;;1.10;;
69034;SDS011;56091;55.756;37.412;2022-11-12T21:42:09;4.68;;;1.30;;
69034;SDS011;56091;55.756;37.412;2022-11-12T21:47:28;3.43;;;1.10;;
69034;SDS011;56091;55.756;37.412;2022-11-12T21:52:47;3.58;;;1.08;;
69034;SDS011;56091;55.756;37.412;2022-11-12T21:58:07;5.83;;;1.10;;
69034;SDS011;56091;55.756;37.412;2022-11-12T22:03:29;3.50;;;1.33;;
69034;SDS011;56091;55.756;37.412;2022-11-12T22:08:52;6.03;;;1.20;;
69034;SDS011;56091;55.756;37.412;2022-11-12T22:14:12;3.33;;;0.90;;
69034;SDS011;56091;55.756;37.412;2022-11-12T22:19:31;3.17;;;1.00;;
69034;SDS011;56091;55.756;37.412;2022-11-12T22:24:52;4.10;;;0.98;;
69034;SDS011;56091;55.756;37.412;2022-11-12T22:30:13;4.60;;;1.00;;
69034;SDS011;56091;55.756;37.412;2022-11-12T22:35:32;3.53;;;0.90;;
69034;SDS011;56091;55.756;37.412;2022-11-12T22:40:58;4.50;;;1.43;;
69034;SDS011;56091;55.756;37.412;2022-11-12T22:46:20;2.33;;;0.80;;
69034;SDS011;56091;55.756;37.412;2022-11-12T22:51:42;3.10;;;0.90;;
69034;SDS011;56091;55.756;37.412;2022-11-12T22:57:02;2.95;;;0.70;;
69034;SDS011;56091;55.756;37.412;2022-11-12T23:02:21;2.20;;;0.80;;
69034;SDS011;56091;55.756;37.412;2022-11-12T23:07:43;1.05;;;0.60;;
69034;SDS011;56091;55.756;37.412;2022-11-12T23:13:02;1.60;;;0.80;;
69034;SDS011;56091;55.756;37.412;2022-11-12T23:18:23;3.13;;;0.80;;
69034;SDS011;56091;55.756;37.412;2022-11-12T23:23:43;2.27;;;0.90;;
69034;SDS011;56091;55.756;37.412;2022-11-12T23:29:03;2.85;;;0.80;;
69034;SDS011;56091;55.756;37.412;2022-11-12T23:34:22;2.57;;;0.80;;
69034;SDS011;56091;55.756;37.412;2022-11-12T23:39:42;2.85;;;0.85;;
69034;SDS011;56091;55.756;37.412;2022-11-12T23:45:01;2.80;;;0.80;;
69034;SDS011;56091;55.756;37.412;2022-11-12T23:50:20;1.85;;;0.80;;
69034;SDS011;56091;55.756;37.412;2022-11-12T23:55:40;2.77;;;0.90;;
